Time;durP1;ratioP1;P1;durP2;ratioP2;P2;SDS_P1;SDS_P2;PMS_P1;PMS_P2;Temp;Humidity;BMP_temperature;BMP_pressure;BME280_temperature;BME280_humidity;BME280_pressure;Samples;Min_cycle;Max_cycle;Signal;HPM_P1;HPM_P2
2023/05/08 00:00:34;;;;;;;6.20;5.10;;;;;;;;;;5041004;28;20623;-74
2023/05/08 00:03:38;;;;;;;6.93;5.67;;;;;;;;;;5052970;28;20633;-75
2023/05/08 00:06:42;;;;;;;12.13;5.53;;;;;;;;;;5053226;28;20199;-75
2023/05/08 00:09:46;;;;;;;5.97;5.13;;;;;;;;;;5053393;28;20188;-74
2023/05/08 00:12:50;;;;;;;7.00;5.27;;;;;;;;;;5042820;28;20223;-74
2023/05/08 00:15:54;;;;;;;8.70;5.90;;;;;;;;;;5058110;28;20599;-74
2023/05/08 00:18:59;;;;;;;8.43;5.10;;;;;;;;;;5045618;28;20181;-74
2023/05/08 00:22:03;;;;;;;5.77;5.00;;;;;;;;;;5033785;28;20219;-74
2023/05/08 00:25:07;;;;;;;5.53;4.67;;;;;;;;;;5057303;28;20180;-74
2023/05/08 00:28:12;;;;;;;7.57;4.60;;;;;;;;;;5056771;28;20204;-74
2023/05/08 00:31:17;;;;;;;7.77;5.27;;;;;;;;;;5061282;28;20216;-74
2023/05/08 00:34:21;;;;;;;10.30;5.50;;;;;;;;;;5038507;28;20180;-74
2023/05/08 00:37:25;;;;;;;6.10;5.33;;;;;;;;;;5037692;28;20198;-74
2023/05/08 00:40:29;;;;;;;9.73;5.57;;;;;;;;;;5061829;28;20646;-74
2023/05/08 00:43:34;;;;;;;6.67;5.40;;;;;;;;;;5049723;28;20176;-74
2023/05/08 00:46:40;;;;;;;7.97;5.77;;;;;;;;;;5038163;28;20176;-74
2023/05/08 00:49:44;;;;;;;6.63;5.90;;;;;;;;;;5048553;28;20233;-75
2023/05/08 00:52:49;;;;;;;7.83;6.00;;;;;;;;;;5048345;28;20219;-75
2023/05/08 00:55:53;;;;;;;8.43;5.77;;;;;;;;;;5047767;28;20540;-75
2023/05/08 00:58:58;;;;;;;7.47;5.67;;;;;;;;;;5035871;28;20173;-74
2023/05/08 01:02:02;;;;;;;7.87;5.87;;;;;;;;;;5046966;28;20220;-74
2023/05/08 01:05:07;;;;;;;9.47;5.50;;;;;;;;;;5046627;28;20180;-75
2023/05/08 01:08:11;;;;;;;9.03;5.80;;;;;;;;;;5034912;28;20208;-75
2023/05/08 01:11:45;;;;;;;8.00;6.17;;;;;;;;;;5057835;28;20228;-75
2023/05/08 01:15:15;;;;;;;8.03;6.50;;;;;;;;;;5045713;28;20180;-74
2023/05/08 01:18:34;;;;;;;8.93;6.77;;;;;;;;;;5034326;28;20176;-74
2023/05/08 01:21:47;;;;;;;9.63;7.07;;;;;;;;;;5057409;28;20686;-74
2023/05/08 01:25:05;;;;;;;8.07;6.73;;;;;;;;;;5044233;28;20181;-74
2023/05/08 01:28:18;;;;;;;10.03;7.07;;;;;;;;;;5044500;28;20204;-74
2023/05/08 01:31:30;;;;;;;7.47;6.50;;;;;;;;;;5044337;28;20216;-74
2023/05/08 01:34:43;;;;;;;8.33;6.17;;;;;;;;;;5021935;28;20196;-74
2023/05/08 01:38:06;;;;;;;10.27;7.30;;;;;;;;;;5032858;28;20196;-75
2023/05/08 01:41:24;;;;;;;10.87;7.80;;;;;;;;;;5044539;28;20181;-74
2023/05/08 01:44:36;;;;;;;11.67;7.10;;;;;;;;;;5043937;28;20180;-75
2023/05/08 01:47:42;;;;;;;8.73;7.30;;;;;;;;;;5056337;28;20177;-74
2023/05/08 01:50:57;;;;;;;10.10;7.33;;;;;;;;;;5043697;28;20500;-74
2023/05/08 01:54:05;;;;;;;8.87;7.37;;;;;;;;;;5043773;28;20180;-75
2023/05/08 01:57:11;;;;;;;7.70;6.90;;;;;;;;;;5043685;28;20208;-74
2023/05/08 02:00:19;;;;;;;8.23;7.30;;;;;;;;;;5043839;28;20192;-75
2023/05/08 02:03:25;;;;;;;15.20;7.20;;;;;;;;;;5043265;28;20180;-74
2023/05/08 02:06:31;;;;;;;8.70;6.90;;;;;;;;;;5043520;28;20200;-74
2023/05/08 02:09:36;;;;;;;8.70;7.00;;;;;;;;;;5043330;28;20216;-75
2023/05/08 02:12:42;;;;;;;7.67;6.87;;;;;;;;;;5042872;28;20223;-74
2023/05/08 02:15:48;;;;;;;9.00;7.40;;;;;;;;;;5055349;28;20524;-74
2023/05/08 02:18:54;;;;;;;8.47;7.13;;;;;;;;;;5042945;28;20184;-74
2023/05/08 02:21:59;;;;;;;8.77;7.33;;;;;;;;;;5031669;28;20568;-75
2023/05/08 02:25:05;;;;;;;8.43;7.37;;;;;;;;;;5042814;28;20181;-75
2023/05/08 02:28:09;;;;;;;10.40;7.07;;;;;;;;;;5042594;28;20180;-74
2023/05/08 02:31:15;;;;;;;8.77;6.87;;;;;;;;;;5043039;28;20180;-74
2023/05/08 02:34:22;;;;;;;8.20;6.93;;;;;;;;;;5042442;28;20184;-74
2023/05/08 02:37:27;;;;;;;8.90;6.97;;;;;;;;;;5055019;28;20183;-74
2023/05/08 02:40:31;;;;;;;9.07;7.07;;;;;;;;;;5055051;28;20184;-75
2023/05/08 02:43:36;;;;;;;8.07;7.23;;;;;;;;;;5042659;28;20188;-75
2023/05/08 02:47:15;;;;;;;9.20;7.40;;;;;;;;;;5042241;28;20275;-74
2023/05/08 02:50:36;;;;;;;8.47;6.90;;;;;;;;;;5054680;28;20204;-75
2023/05/08 02:53:48;;;;;;;8.03;7.00;;;;;;;;;;5042164;28;20184;-74
2023/05/08 02:57:20;;;;;;;7.90;6.90;;;;;;;;;;5031001;28;20172;-74
2023/05/08 03:00:36;;;;;;;8.50;6.40;;;;;;;;;;5042214;28;20184;-75
2023/05/08 03:03:46;;;;;;;7.80;6.50;;;;;;;;;;5042093;28;20180;-74
2023/05/08 03:06:53;;;;;;;8.30;6.77;;;;;;;;;;5030946;28;20180;-74
2023/05/08 03:10:03;;;;;;;8.63;6.97;;;;;;;;;;5041943;28;20208;-75
2023/05/08 03:13:10;;;;;;;8.07;6.73;;;;;;;;;;5030214;28;20219;-74
2023/05/08 03:16:21;;;;;;;9.03;7.50;;;;;;;;;;5042108;28;20200;-75
2023/05/08 03:19:30;;;;;;;9.93;7.63;;;;;;;;;;5030174;28;20180;-74
2023/05/08 03:22:36;;;;;;;10.33;7.57;;;;;;;;;;5041593;28;20223;-74
2023/05/08 03:25:42;;;;;;;9.50;7.43;;;;;;;;;;5041891;28;20517;-74
2023/05/08 03:28:48;;;;;;;9.93;7.17;;;;;;;;;;5030161;28;20204;-75
2023/05/08 03:31:57;;;;;;;9.10;7.10;;;;;;;;;;5041597;28;20211;-74
2023/05/08 03:35:02;;;;;;;11.23;6.83;;;;;;;;;;5030110;28;20176;-74
2023/05/08 03:38:07;;;;;;;8.60;7.70;;;;;;;;;;5030350;28;20616;-74
2023/05/08 03:41:12;;;;;;;8.23;7.33;;;;;;;;;;5041502;28;20176;-74
2023/05/08 03:44:17;;;;;;;8.17;6.73;;;;;;;;;;5053615;28;20525;-74
2023/05/08 03:47:21;;;;;;;8.07;7.10;;;;;;;;;;5029792;28;20618;-75
2023/05/08 03:50:27;;;;;;;8.30;7.40;;;;;;;;;;5030286;28;20211;-75
2023/05/08 03:53:32;;;;;;;8.73;7.40;;;;;;;;;;5041404;28;20176;-74
2023/05/08 03:56:36;;;;;;;9.77;7.40;;;;;;;;;;5041084;28;20184;-74
2023/05/08 04:00:03;;;;;;;9.60;7.60;;;;;;;;;;5029949;28;20176;-74
2023/05/08 04:03:35;;;;;;;11.60;6.60;;;;;;;;;;5042449;28;20216;-74
2023/05/08 04:06:45;;;;;;;9.67;7.53;;;;;;;;;;5041197;28;20184;-74
2023/05/08 04:10:03;;;;;;;9.03;7.70;;;;;;;;;;5029982;28;20208;-75
2023/05/08 04:13:13;;;;;;;15.53;8.67;;;;;;;;;;5059555;22;20227;-73
2023/05/08 04:16:24;;;;;;;11.73;9.27;;;;;;;;;;5060840;28;20179;-73
2023/05/08 04:19:34;;;;;;;10.43;8.27;;;;;;;;;;5060600;28;20645;-73
2023/05/08 04:22:41;;;;;;;10.77;7.77;;;;;;;;;;5046006;28;20216;-73
2023/05/08 04:25:47;;;;;;;10.23;7.53;;;;;;;;;;5041305;28;20177;-72
2023/05/08 04:28:52;;;;;;;8.57;7.03;;;;;;;;;;5029086;28;20639;-73
2023/05/08 04:31:56;;;;;;;11.60;7.27;;;;;;;;;;5040908;28;20223;-73
2023/05/08 04:35:01;;;;;;;8.33;7.27;;;;;;;;;;5052635;28;20184;-73
2023/05/08 04:38:06;;;;;;;8.73;7.03;;;;;;;;;;5040936;28;20624;-73
2023/05/08 04:41:10;;;;;;;8.23;7.23;;;;;;;;;;5052941;28;20176;-73
2023/05/08 04:44:14;;;;;;;9.93;7.73;;;;;;;;;;5040865;28;20172;-73
2023/05/08 04:47:18;;;;;;;8.43;7.53;;;;;;;;;;5052728;28;20192;-73
2023/05/08 04:50:22;;;;;;;9.37;7.13;;;;;;;;;;5029210;28;20215;-73
2023/05/08 04:53:26;;;;;;;10.73;7.03;;;;;;;;;;5040145;28;20200;-73
2023/05/08 04:56:31;;;;;;;9.47;7.50;;;;;;;;;;5040603;28;20176;-72
2023/05/08 04:59:35;;;;;;;9.17;6.77;;;;;;;;;;5032307;28;20168;-71
2023/05/08 05:02:39;;;;;;;9.27;7.23;;;;;;;;;;5044125;28;20670;-72
2023/05/08 05:05:43;;;;;;;9.20;7.43;;;;;;;;;;5043925;28;20176;-72
2023/05/08 05:08:47;;;;;;;8.00;6.67;;;;;;;;;;5043719;28;20180;-73
2023/05/08 05:11:52;;;;;;;9.80;7.07;;;;;;;;;;5032238;28;20204;-73
2023/05/08 05:14:56;;;;;;;9.93;8.13;;;;;;;;;;5055749;28;20200;-73
2023/05/08 05:18:02;;;;;;;8.83;6.97;;;;;;;;;;5032173;28;20200;-73
2023/05/08 05:21:06;;;;;;;10.50;7.53;;;;;;;;;;5032301;28;20188;-73
2023/05/08 05:24:11;;;;;;;8.53;7.07;;;;;;;;;;5043596;28;20176;-73
2023/05/08 05:27:15;;;;;;;12.17;8.03;;;;;;;;;;5055468;28;20180;-73
2023/05/08 05:30:19;;;;;;;10.47;8.50;;;;;;;;;;5043399;28;20211;-73
2023/05/08 05:33:23;;;;;;;8.80;7.07;;;;;;;;;;5055466;28;20634;-73
2023/05/08 05:36:29;;;;;;;8.77;7.13;;;;;;;;;;5032386;28;20623;-73
2023/05/08 05:39:35;;;;;;;10.17;7.37;;;;;;;;;;5043359;28;20188;-73
2023/05/08 05:42:39;;;;;;;9.93;7.63;;;;;;;;;;5043039;28;20228;-73
2023/05/08 05:45:43;;;;;;;8.43;7.37;;;;;;;;;;5042970;28;20200;-73
2023/05/08 05:48:47;;;;;;;7.80;6.73;;;;;;;;;;5042881;28;20192;-73
2023/05/08 05:51:51;;;;;;;9.57;7.83;;;;;;;;;;5031502;28;20212;-73
2023/05/08 05:54:55;;;;;;;7.93;6.80;;;;;;;;;;5031675;28;20516;-72
2023/05/08 05:57:59;;;;;;;8.60;6.90;;;;;;;;;;5042930;28;20180;-72
2023/05/08 06:01:03;;;;;;;8.53;6.90;;;;;;;;;;5042404;28;20176;-73
2023/05/08 06:04:08;;;;;;;8.67;6.80;;;;;;;;;;5042864;28;20185;-73
2023/05/08 06:07:11;;;;;;;9.97;7.07;;;;;;;;;;5031426;28;20622;-72
2023/05/08 06:10:16;;;;;;;9.33;7.13;;;;;;;;;;5030501;28;20223;-73
2023/05/08 06:13:20;;;;;;;9.27;7.07;;;;;;;;;;5042263;28;20227;-73
2023/05/08 06:16:24;;;;;;;10.63;7.50;;;;;;;;;;5042832;28;20176;-73
2023/05/08 06:19:28;;;;;;;11.60;7.60;;;;;;;;;;5031066;28;20196;-73
2023/05/08 06:22:32;;;;;;;9.93;7.60;;;;;;;;;;5019914;28;20566;-73
2023/05/08 06:25:36;;;;;;;9.27;7.57;;;;;;;;;;5054964;28;20176;-72
2023/05/08 06:28:40;;;;;;;9.97;7.80;;;;;;;;;;5054424;28;20634;-73
2023/05/08 06:31:44;;;;;;;9.67;7.40;;;;;;;;;;5054496;28;20216;-73
2023/05/08 06:34:48;;;;;;;8.87;7.57;;;;;;;;;;5042059;28;20179;-73
2023/05/08 06:37:53;;;;;;;8.27;6.80;;;;;;;;;;5054752;28;20184;-73
2023/05/08 06:40:57;;;;;;;7.00;6.30;;;;;;;;;;5019556;28;20180;-73
2023/05/08 06:44:01;;;;;;;14.17;7.63;;;;;;;;;;5054119;28;20176;-73
2023/05/08 06:47:07;;;;;;;8.67;7.53;;;;;;;;;;5041780;28;20199;-73
2023/05/08 06:50:11;;;;;;;8.50;7.27;;;;;;;;;;5054166;28;20228;-73
2023/05/08 06:53:15;;;;;;;7.30;6.57;;;;;;;;;;5030857;28;20215;-73
2023/05/08 06:56:19;;;;;;;14.67;7.13;;;;;;;;;;5042402;28;20618;-73
2023/05/08 06:59:23;;;;;;;9.40;7.17;;;;;;;;;;5041582;28;20188;-73
2023/05/08 07:02:27;;;;;;;9.33;6.90;;;;;;;;;;5053819;28;20203;-73
2023/05/08 07:05:31;;;;;;;9.70;7.20;;;;;;;;;;5053715;28;20519;-73
2023/05/08 07:08:36;;;;;;;10.57;7.47;;;;;;;;;;5053883;28;20623;-73
2023/05/08 07:11:40;;;;;;;11.07;7.57;;;;;;;;;;5041294;28;20231;-73
2023/05/08 07:14:44;;;;;;;8.30;7.33;;;;;;;;;;5053696;28;20203;-73
2023/05/08 07:17:48;;;;;;;7.83;7.03;;;;;;;;;;5030249;28;20172;-73
2023/05/08 07:20:52;;;;;;;8.30;7.03;;;;;;;;;;5053331;28;20172;-73
2023/05/08 07:23:56;;;;;;;10.57;7.17;;;;;;;;;;5054121;28;20176;-73
2023/05/08 07:27:00;;;;;;;8.30;7.00;;;;;;;;;;5053437;28;20184;-73
2023/05/08 07:30:05;;;;;;;8.00;6.93;;;;;;;;;;5053798;28;20212;-73
2023/05/08 07:33:09;;;;;;;9.07;7.30;;;;;;;;;;5041151;28;20216;-73
2023/05/08 07:36:13;;;;;;;8.63;6.90;;;;;;;;;;5053488;28;20205;-73
2023/05/08 07:39:18;;;;;;;8.60;7.23;;;;;;;;;;5030137;28;20176;-73
2023/05/08 07:42:22;;;;;;;8.27;7.17;;;;;;;;;;5029558;28;20212;-73
2023/05/08 07:45:26;;;;;;;7.07;6.37;;;;;;;;;;5053970;28;20180;-73
2023/05/08 07:48:30;;;;;;;10.43;6.63;;;;;;;;;;5053035;28;20200;-73
2023/05/08 07:51:35;;;;;;;7.90;6.90;;;;;;;;;;5053160;28;20231;-73
2023/05/08 07:54:39;;;;;;;15.77;7.77;;;;;;;;;;5053030;28;20176;-72
2023/05/08 07:57:43;;;;;;;8.07;6.80;;;;;;;;;;5041028;28;20195;-71
2023/05/08 08:00:47;;;;;;;7.87;6.80;;;;;;;;;;5052958;28;20196;-73
2023/05/08 08:03:53;;;;;;;10.97;7.40;;;;;;;;;;5040879;28;20176;-73
2023/05/08 08:06:57;;;;;;;7.80;6.83;;;;;;;;;;5053730;28;20184;-71
2023/05/08 08:10:03;;;;;;;7.87;6.70;;;;;;;;;;5053619;28;20179;-71
2023/05/08 08:13:07;;;;;;;7.93;6.57;;;;;;;;;;5052870;28;20223;-72
2023/05/08 08:16:11;;;;;;;8.23;6.93;;;;;;;;;;5029264;28;20638;-71
2023/05/08 08:19:15;;;;;;;7.10;6.37;;;;;;;;;;5040893;28;20180;-70
2023/05/08 08:22:19;;;;;;;7.50;6.70;;;;;;;;;;5040740;28;20547;-72
2023/05/08 08:25:24;;;;;;;9.40;6.77;;;;;;;;;;5029666;28;20184;-72
2023/05/08 08:28:28;;;;;;;9.97;6.67;;;;;;;;;;5052949;28;20184;-72
2023/05/08 08:31:32;;;;;;;8.47;6.40;;;;;;;;;;5041131;28;20559;-73
2023/05/08 08:34:36;;;;;;;6.67;5.90;;;;;;;;;;5056132;28;20180;-73
2023/05/08 08:37:40;;;;;;;8.73;6.30;;;;;;;;;;5057103;28;20176;-73
2023/05/08 08:40:45;;;;;;;8.73;6.30;;;;;;;;;;5056792;28;20175;-73
2023/05/08 08:43:49;;;;;;;10.13;6.87;;;;;;;;;;5044433;28;20184;-73
2023/05/08 08:46:54;;;;;;;7.77;6.37;;;;;;;;;;5044561;28;20180;-73
2023/05/08 08:50:02;;;;;;;7.00;6.30;;;;;;;;;;5056258;28;20180;-73
2023/05/08 08:53:24;;;;;;;7.77;6.97;;;;;;;;;;5056167;28;20220;-71
2023/05/08 08:56:30;;;;;;;10.33;7.13;;;;;;;;;;5044156;28;20180;-73
2023/05/08 08:59:37;;;;;;;10.17;6.27;;;;;;;;;;5056413;28;20679;-73
2023/05/08 09:02:41;;;;;;;7.73;6.47;;;;;;;;;;5056125;28;20212;-73
2023/05/08 09:05:48;;;;;;;9.10;7.70;;;;;;;;;;5043727;28;20195;-73
2023/05/08 09:08:59;;;;;;;9.17;7.90;;;;;;;;;;5032676;28;20176;-70
2023/05/08 09:12:03;;;;;;;9.23;6.50;;;;;;;;;;5056395;28;20232;-71
2023/05/08 09:15:08;;;;;;;7.53;6.73;;;;;;;;;;5056049;28;20188;-70
2023/05/08 09:18:12;;;;;;;8.10;6.80;;;;;;;;;;5055985;28;20176;-71
2023/05/08 09:21:16;;;;;;;8.50;7.60;;;;;;;;;;5055930;28;20203;-71
2023/05/08 09:24:22;;;;;;;10.10;7.23;;;;;;;;;;5043561;28;20196;-70
2023/05/08 09:27:28;;;;;;;8.33;6.73;;;;;;;;;;5055786;28;20196;-70
2023/05/08 09:30:47;;;;;;;7.47;6.77;;;;;;;;;;5055741;28;20208;-71
2023/05/08 09:33:52;;;;;;;10.00;6.90;;;;;;;;;;5043362;28;20671;-71
2023/05/08 09:37:08;;;;;;;7.37;6.60;;;;;;;;;;5055738;28;20192;-71
2023/05/08 09:40:20;;;;;;;7.80;7.00;;;;;;;;;;5043414;28;20181;-71
2023/05/08 09:43:25;;;;;;;8.37;7.23;;;;;;;;;;5055535;28;20180;-73
2023/05/08 09:46:30;;;;;;;12.73;7.37;;;;;;;;;;5055032;28;20196;-73
2023/05/08 09:49:34;;;;;;;9.37;7.40;;;;;;;;;;5055294;28;20184;-71
2023/05/08 09:52:45;;;;;;;12.40;7.43;;;;;;;;;;5054907;28;20571;-73
2023/05/08 09:55:49;;;;;;;9.30;7.90;;;;;;;;;;5055000;28;20658;-71
2023/05/08 09:58:53;;;;;;;9.43;7.40;;;;;;;;;;5055061;28;20654;-73
2023/05/08 10:01:57;;;;;;;8.63;7.50;;;;;;;;;;5055070;28;20216;-71
2023/05/08 10:05:22;;;;;;;12.03;7.30;;;;;;;;;;5042700;28;20527;-73
2023/05/08 10:08:27;;;;;;;12.70;7.60;;;;;;;;;;5055081;28;20184;-70
2023/05/08 10:11:31;;;;;;;10.63;7.20;;;;;;;;;;5031222;28;20567;-70
2023/05/08 10:14:35;;;;;;;8.30;7.40;;;;;;;;;;5068984;23;20231;-75
2023/05/08 10:18:07;;;;;;;7.60;6.83;;;;;;;;;;5074892;28;20172;-75
2023/05/08 10:21:12;;;;;;;8.10;6.77;;;;;;;;;;5049226;28;20514;-75
2023/05/08 10:24:30;;;;;;;7.83;7.03;;;;;;;;;;5055133;28;20630;-75
2023/05/08 10:27:43;;;;;;;8.50;7.60;;;;;;;;;;5055054;28;20181;-75
2023/05/08 10:30:48;;;;;;;7.53;6.80;;;;;;;;;;5054543;28;20670;-75
2023/05/08 10:33:55;;;;;;;11.37;7.13;;;;;;;;;;5042704;28;20181;-75
2023/05/08 10:37:00;;;;;;;9.37;7.43;;;;;;;;;;5054741;28;20180;-74
2023/05/08 10:40:05;;;;;;;7.30;5.97;;;;;;;;;;5054743;28;20180;-75
2023/05/08 10:43:11;;;;;;;7.77;6.97;;;;;;;;;;5054576;28;20208;-75
2023/05/08 10:46:36;;;;;;;7.10;6.40;;;;;;;;;;5030881;28;20186;-75
2023/05/08 10:50:15;;;;;;;7.33;6.63;;;;;;;;;;5054521;28;20186;-75
2023/05/08 10:53:30;;;;;;;7.80;6.10;;;;;;;;;;5030972;28;20219;-75
2023/05/08 10:56:37;;;;;;;8.03;6.60;;;;;;;;;;5041688;28;20184;-75
2023/05/08 10:59:45;;;;;;;8.43;6.10;;;;;;;;;;5054307;28;20170;-75
2023/05/08 11:02:50;;;;;;;8.90;7.23;;;;;;;;;;5054186;28;20218;-75
2023/05/08 11:05:55;;;;;;;7.70;6.87;;;;;;;;;;5053764;28;20538;-74
2023/05/08 11:08:59;;;;;;;10.23;6.50;;;;;;;;;;5053968;28;20203;-75
2023/05/08 11:12:15;;;;;;;8.97;6.77;;;;;;;;;;5041240;28;20225;-75
2023/05/08 11:15:35;;;;;;;10.90;6.47;;;;;;;;;;5053526;28;20198;-75
2023/05/08 11:19:15;;;;;;;8.20;6.70;;;;;;;;;;5053773;28;20184;-76
2023/05/08 11:22:25;;;;;;;7.07;6.37;;;;;;;;;;5048650;28;20570;-75
2023/05/08 11:25:43;;;;;;;8.93;7.13;;;;;;;;;;5053831;28;20175;-75
2023/05/08 11:28:57;;;;;;;8.87;6.33;;;;;;;;;;5053941;28;20187;-75
2023/05/08 11:32:01;;;;;;;7.23;6.57;;;;;;;;;;5053961;28;20234;-75
2023/05/08 11:35:10;;;;;;;7.50;6.77;;;;;;;;;;5029814;28;20198;-75
2023/05/08 11:38:20;;;;;;;7.43;6.70;;;;;;;;;;5041512;28;20185;-75
2023/05/08 11:41:24;;;;;;;9.17;7.57;;;;;;;;;;5041447;28;20671;-75
2023/05/08 11:44:29;;;;;;;8.77;7.27;;;;;;;;;;5041315;28;20182;-75
2023/05/08 11:47:37;;;;;;;6.83;5.80;;;;;;;;;;5053838;28;20180;-74
2023/05/08 11:50:41;;;;;;;8.47;6.33;;;;;;;;;;5041432;28;20183;-75
2023/05/08 11:53:45;;;;;;;10.20;6.20;;;;;;;;;;5040983;28;20629;-74
2023/05/08 11:56:53;;;;;;;6.77;6.07;;;;;;;;;;5053392;28;20175;-74
2023/05/08 12:00:02;;;;;;;6.43;5.83;;;;;;;;;;5041452;28;20183;-75
2023/05/08 12:03:14;;;;;;;7.03;6.30;;;;;;;;;;5053568;28;20681;-73
2023/05/08 12:06:19;;;;;;;7.67;5.60;;;;;;;;;;5040863;28;20202;-75
2023/05/08 12:09:23;;;;;;;8.20;5.50;;;;;;;;;;5056259;28;20517;-74
2023/05/08 12:12:40;;;;;;;5.80;5.20;;;;;;;;;;5057043;28;20220;-74
2023/05/08 12:15:45;;;;;;;6.27;5.40;;;;;;;;;;5057068;28;20191;-75
2023/05/08 12:18:50;;;;;;;5.57;4.87;;;;;;;;;;5044694;28;20192;-75
2023/05/08 12:21:56;;;;;;;6.63;5.93;;;;;;;;;;5044949;28;20208;-75
2023/05/08 12:25:02;;;;;;;8.97;6.97;;;;;;;;;;5044777;28;20178;-75
2023/05/08 12:28:08;;;;;;;7.87;7.07;;;;;;;;;;5044593;28;20664;-75
2023/05/08 12:31:12;;;;;;;6.77;6.07;;;;;;;;;;5033317;28;20181;-76
2023/05/08 12:34:16;;;;;;;6.80;6.10;;;;;;;;;;5044283;28;20178;-75
2023/05/08 12:37:26;;;;;;;9.47;7.23;;;;;;;;;;5056750;28;20179;-75
2023/05/08 12:40:32;;;;;;;9.63;6.63;;;;;;;;;;5056787;28;20625;-75
2023/05/08 12:43:36;;;;;;;8.43;6.53;;;;;;;;;;5044165;28;20534;-75
2023/05/08 12:46:45;;;;;;;6.83;6.13;;;;;;;;;;5056609;28;20196;-75
2023/05/08 12:49:50;;;;;;;13.67;6.63;;;;;;;;;;5032794;28;20199;-74
2023/05/08 12:53:00;;;;;;;6.50;5.63;;;;;;;;;;5043810;28;20566;-74
2023/05/08 12:56:05;;;;;;;6.70;6.10;;;;;;;;;;5044112;28;20186;-74
2023/05/08 12:59:09;;;;;;;8.30;6.93;;;;;;;;;;5021383;28;20186;-74
2023/05/08 13:02:20;;;;;;;6.73;5.70;;;;;;;;;;5032346;28;20214;-74
2023/05/08 13:05:24;;;;;;;8.43;7.60;;;;;;;;;;5055979;28;20186;-74
2023/05/08 13:08:36;;;;;;;9.23;6.53;;;;;;;;;;5056418;28;20187;-74
2023/05/08 13:11:40;;;;;;;12.63;6.87;;;;;;;;;;5055913;28;20225;-74
2023/05/08 13:14:44;;;;;;;8.60;7.63;;;;;;;;;;5056100;28;20209;-74
2023/05/08 13:17:48;;;;;;;9.13;7.30;;;;;;;;;;5043912;28;20492;-75
2023/05/08 13:20:54;;;;;;;7.63;6.67;;;;;;;;;;5042691;28;20181;-74
2023/05/08 13:23:57;;;;;;;8.07;7.33;;;;;;;;;;5056062;28;20188;-75
2023/05/08 13:27:02;;;;;;;7.40;6.57;;;;;;;;;;5055989;28;20623;-75
2023/05/08 13:30:07;;;;;;;12.40;6.80;;;;;;;;;;5043802;28;20179;-74
2023/05/08 13:33:11;;;;;;;6.80;6.10;;;;;;;;;;5055431;28;20228;-74
2023/05/08 13:36:15;;;;;;;9.80;5.63;;;;;;;;;;5043576;28;20177;-75
2023/05/08 13:39:19;;;;;;;6.80;6.17;;;;;;;;;;5055715;28;20184;-75
2023/05/08 13:42:23;;;;;;;6.47;5.77;;;;;;;;;;5043095;28;20212;-74
2023/05/08 13:45:27;;;;;;;6.67;5.23;;;;;;;;;;5032213;28;20182;-75
2023/05/08 13:48:31;;;;;;;6.73;5.47;;;;;;;;;;5055416;28;20201;-74
2023/05/08 13:51:35;;;;;;;9.67;5.30;;;;;;;;;;5055349;28;20216;-74
2023/05/08 13:54:39;;;;;;;9.03;6.00;;;;;;;;;;5055373;28;20201;-75
2023/05/08 13:57:44;;;;;;;6.80;6.10;;;;;;;;;;5054997;28;20195;-75
2023/05/08 14:00:48;;;;;;;8.77;5.00;;;;;;;;;;5043102;28;20193;-75
2023/05/08 14:03:53;;;;;;;13.47;6.70;;;;;;;;;;5043136;28;20181;-75
2023/05/08 14:06:58;;;;;;;9.40;8.47;;;;;;;;;;5042993;28;20639;-74
2023/05/08 14:10:02;;;;;;;10.70;7.43;;;;;;;;;;5055136;28;20176;-75
2023/05/08 14:13:06;;;;;;;13.27;7.13;;;;;;;;;;5054914;28;20224;-75
2023/05/08 14:16:13;;;;;;;9.97;6.63;;;;;;;;;;5055005;28;20667;-75
2023/05/08 14:19:17;;;;;;;8.93;7.67;;;;;;;;;;5042605;28;20200;-75
2023/05/08 14:22:21;;;;;;;8.53;7.23;;;;;;;;;;5031006;28;20216;-75
2023/05/08 14:25:25;;;;;;;8.43;7.10;;;;;;;;;;5055130;28;20176;-75
2023/05/08 14:28:29;;;;;;;7.80;7.00;;;;;;;;;;5054521;28;20172;-75
2023/05/08 14:31:33;;;;;;;6.50;5.90;;;;;;;;;;5042273;28;20216;-75
2023/05/08 14:34:38;;;;;;;26.70;7.37;;;;;;;;;;5030781;28;20180;-75
2023/05/08 14:37:42;;;;;;;8.87;5.80;;;;;;;;;;5054836;28;20177;-75
2023/05/08 14:40:49;;;;;;;7.20;6.20;;;;;;;;;;5042462;28;20180;-75
2023/05/08 14:43:53;;;;;;;7.10;5.23;;;;;;;;;;5054331;28;20177;-75
2023/05/08 14:46:57;;;;;;;5.87;4.87;;;;;;;;;;5054212;28;20188;-75
2023/05/08 14:50:02;;;;;;;6.17;5.17;;;;;;;;;;5054262;28;20176;-75
2023/05/08 14:53:06;;;;;;;18.37;4.93;;;;;;;;;;5019311;28;20223;-75
2023/05/08 14:56:10;;;;;;;12.70;4.60;;;;;;;;;;5042091;28;20184;-75
2023/05/08 14:59:14;;;;;;;5.83;4.23;;;;;;;;;;5042264;28;20180;-76
2023/05/08 15:02:19;;;;;;;8.73;4.30;;;;;;;;;;5053943;28;20219;-75
2023/05/08 15:05:23;;;;;;;6.10;3.80;;;;;;;;;;5053906;28;20184;-75
2023/05/08 15:08:28;;;;;;;6.23;3.33;;;;;;;;;;5041702;28;20576;-75
2023/05/08 15:11:32;;;;;;;4.83;3.43;;;;;;;;;;5041432;28;20219;-75
2023/05/08 15:14:36;;;;;;;4.33;3.57;;;;;;;;;;5054157;28;20200;-75
2023/05/08 15:17:41;;;;;;;6.63;3.77;;;;;;;;;;5053871;28;20180;-75
2023/05/08 15:20:45;;;;;;;7.87;3.40;;;;;;;;;;5053810;28;20180;-75
2023/05/08 15:23:49;;;;;;;5.43;3.50;;;;;;;;;;5053795;28;20172;-75
2023/05/08 15:26:53;;;;;;;5.10;4.00;;;;;;;;;;5041175;28;20172;-75
2023/05/08 15:29:57;;;;;;;4.93;4.20;;;;;;;;;;5054014;28;20294;-75
2023/05/08 15:33:02;;;;;;;12.63;4.10;;;;;;;;;;5041061;28;20227;-76
2023/05/08 15:36:06;;;;;;;6.97;4.40;;;;;;;;;;5041244;28;20623;-75
2023/05/08 15:39:09;;;;;;;8.43;4.33;;;;;;;;;;5053594;28;20175;-75
2023/05/08 15:42:14;;;;;;;4.77;4.10;;;;;;;;;;5053055;28;20216;-75
2023/05/08 15:45:18;;;;;;;6.60;5.10;;;;;;;;;;5041201;28;20184;-75
2023/05/08 15:48:22;;;;;;;6.57;5.00;;;;;;;;;;5053644;28;20179;-75
2023/05/08 15:51:27;;;;;;;7.60;5.80;;;;;;;;;;5041619;28;20555;-75
2023/05/08 15:54:31;;;;;;;7.00;6.30;;;;;;;;;;5041565;28;20173;-76
2023/05/08 15:57:35;;;;;;;11.00;6.60;;;;;;;;;;5053330;28;20176;-75
2023/05/08 16:00:39;;;;;;;7.70;6.83;;;;;;;;;;5057430;28;20184;-75
2023/05/08 16:03:44;;;;;;;8.77;7.63;;;;;;;;;;5057658;28;20176;-75
2023/05/08 16:06:47;;;;;;;10.03;7.03;;;;;;;;;;5057566;28;20184;-76
2023/05/08 16:09:52;;;;;;;9.83;7.57;;;;;;;;;;5045492;28;20180;-75
2023/05/08 16:12:56;;;;;;;8.80;7.57;;;;;;;;;;5045169;28;20240;-75
2023/05/08 16:16:03;;;;;;;8.20;7.23;;;;;;;;;;5057280;28;20173;-75
2023/05/08 16:19:07;;;;;;;10.00;7.03;;;;;;;;;;5056816;28;20204;-75
2023/05/08 16:22:11;;;;;;;8.63;6.40;;;;;;;;;;5044720;28;20216;-76
2023/05/08 16:25:15;;;;;;;7.20;6.50;;;;;;;;;;5033018;28;20172;-75
2023/05/08 16:28:19;;;;;;;9.13;6.50;;;;;;;;;;5055732;28;20180;-75
2023/05/08 16:31:24;;;;;;;13.67;6.40;;;;;;;;;;5043025;28;20215;-75
2023/05/08 16:34:28;;;;;;;8.63;5.60;;;;;;;;;;5054848;28;20588;-75
2023/05/08 16:37:32;;;;;;;8.87;5.83;;;;;;;;;;5042878;28;20509;-75
2023/05/08 16:40:37;;;;;;;7.77;6.13;;;;;;;;;;5054971;28;20184;-75
2023/05/08 16:43:40;;;;;;;6.70;5.53;;;;;;;;;;5054771;28;20180;-76
2023/05/08 16:46:45;;;;;;;12.57;5.80;;;;;;;;;;5054161;28;20196;-76
2023/05/08 16:49:49;;;;;;;7.43;6.33;;;;;;;;;;5030621;28;20172;-75
2023/05/08 16:52:55;;;;;;;6.60;5.90;;;;;;;;;;5053957;28;20220;-75
2023/05/08 16:55:59;;;;;;;10.33;6.13;;;;;;;;;;5057210;28;20195;-75
2023/05/08 16:59:05;;;;;;;11.70;6.70;;;;;;;;;;5058026;28;20516;-75
2023/05/08 17:02:10;;;;;;;6.80;5.40;;;;;;;;;;5057321;28;20216;-75
2023/05/08 17:05:14;;;;;;;8.17;5.80;;;;;;;;;;5056673;28;20523;-75
2023/05/08 17:08:19;;;;;;;7.93;6.20;;;;;;;;;;5032983;28;20655;-75
2023/05/08 17:11:23;;;;;;;6.97;5.60;;;;;;;;;;5056603;28;20215;-75
2023/05/08 17:14:27;;;;;;;12.10;5.43;;;;;;;;;;5044250;28;20235;-75
2023/05/08 17:17:31;;;;;;;7.27;5.13;;;;;;;;;;5056236;28;20176;-75
2023/05/08 17:20:39;;;;;;;9.20;5.73;;;;;;;;;;5056992;28;20192;-75
2023/05/08 17:23:44;;;;;;;5.60;4.97;;;;;;;;;;5056459;28;20172;-75
2023/05/08 17:26:49;;;;;;;6.53;5.37;;;;;;;;;;5043744;28;20654;-75
2023/05/08 17:29:54;;;;;;;10.63;5.73;;;;;;;;;;5056198;28;20196;-75
2023/05/08 17:32:58;;;;;;;8.87;6.00;;;;;;;;;;5055779;28;20232;-75
2023/05/08 17:36:02;;;;;;;6.37;4.97;;;;;;;;;;5056068;28;20185;-74
2023/05/08 17:39:07;;;;;;;7.07;4.83;;;;;;;;;;5055639;28;20196;-75
2023/05/08 17:42:11;;;;;;;10.03;5.60;;;;;;;;;;5055505;28;20677;-74
2023/05/08 17:45:15;;;;;;;6.73;4.87;;;;;;;;;;5055629;28;20196;-74
2023/05/08 17:48:19;;;;;;;5.97;5.30;;;;;;;;;;5055980;28;20195;-75
2023/05/08 17:51:23;;;;;;;5.13;4.63;;;;;;;;;;5055816;28;20211;-75
2023/05/08 17:54:27;;;;;;;8.77;5.10;;;;;;;;;;5055368;28;20223;-75
2023/05/08 17:57:31;;;;;;;6.43;5.17;;;;;;;;;;5055619;28;20196;-75
2023/05/08 18:00:36;;;;;;;6.73;4.80;;;;;;;;;;5055320;28;20184;-75
2023/05/08 18:03:40;;;;;;;7.77;4.60;;;;;;;;;;5043456;28;20635;-75
2023/05/08 18:06:46;;;;;;;6.23;4.67;;;;;;;;;;5042832;28;20196;-75
2023/05/08 18:09:51;;;;;;;11.97;5.40;;;;;;;;;;5055600;28;20176;-75
2023/05/08 18:12:55;;;;;;;16.93;5.93;;;;;;;;;;5055170;28;20216;-75
2023/05/08 18:15:59;;;;;;;11.87;5.07;;;;;;;;;;5042766;28;20176;-75
2023/05/08 18:19:03;;;;;;;7.00;4.90;;;;;;;;;;5043058;28;20524;-75
2023/05/08 18:22:07;;;;;;;8.80;4.80;;;;;;;;;;5054989;28;20208;-76
2023/05/08 18:25:11;;;;;;;13.43;5.20;;;;;;;;;;5042520;28;20172;-76
2023/05/08 18:28:16;;;;;;;5.20;4.60;;;;;;;;;;5054893;28;20185;-75
2023/05/08 18:31:20;;;;;;;5.80;5.20;;;;;;;;;;5054608;28;20216;-76
2023/05/08 18:34:25;;;;;;;6.33;4.90;;;;;;;;;;5054857;28;20207;-75